Air Quality Table

TIMESTAMP NO2 SO2 PM10 PM2.5 TEMP HUM AIRPRES WS WD NO
2022-11-26 01:00 37.31 µg/m3 1.29 µg/m3 32.92 µg/m3 13.05 µg/m3 17.29 °C 73.81 % 1,018.04 mbar 1.69 m/s 254.69 Deg 22.74 µg/m3
2022-11-25 01:00 14.81 µg/m3 -0.11 µg/m3 25.86 µg/m3 11.86 µg/m3 18.75 °C 77.95 % 1,012.91 mbar 4.26 m/s 263.36 Deg 3.92 µg/m3
2022-11-24 01:00 15.85 µg/m3 -0.29 µg/m3 13.84 µg/m3 5.65 µg/m3 17.94 °C 70.74 % 1,008.41 mbar 6.13 m/s 239.72 Deg 6.35 µg/m3
2022-11-23 01:00 18.36 µg/m3 0.22 µg/m3 16.94 µg/m3 6.24 µg/m3 18.44 °C 60.49 % 1,008.40 mbar 8.99 m/s 225.35 Deg 6.27 µg/m3
2022-11-22 01:00 24.53 µg/m3 0.51 µg/m3 16.13 µg/m3 6.06 µg/m3 17.39 °C 68.6 % 1,014.23 mbar 4.19 m/s 245.87 Deg 8.64 µg/m3
2022-11-21 01:00 12.62 µg/m3 -1.02 µg/m3 25.48 µg/m3 9.09 µg/m3 17.74 °C 71.35 % 1,008.25 mbar 4.7 m/s 245.79 Deg 5.11 µg/m3
2022-11-20 01:00 30.12 µg/m3 -0.27 µg/m3 44.07 µg/m3 17.11 µg/m3 22.12 °C 79.65 % 1,007.51 mbar 4.18 m/s 202.77 Deg 20.73 µg/m3
2022-11-19 01:00 24.37 µg/m3 -0.26 µg/m3 24.38 µg/m3 10.41 µg/m3 21.68 °C 77.62 % 1,008.45 mbar 5.13 m/s 217.37 Deg 8.3 µg/m3
2022-11-18 01:00 36.62 µg/m3 0.36 µg/m3 27.19 µg/m3 12.11 µg/m3 19.86 °C 79.77 % 1,007.25 mbar 3.22 m/s 216.87 Deg 23.43 µg/m3
2022-11-17 01:00 48.03 µg/m3 0.98 µg/m3 25.89 µg/m3 10.46 µg/m3 21.14 °C 73.2 % 1,009.34 mbar 3.5 m/s 198.64 Deg 36.11 µg/m3
2022-11-16 01:00 47.21 µg/m3 1.2 µg/m3 26.37 µg/m3 11.33 µg/m3 19.5 °C 78.97 % 1,017.14 mbar 2.39 m/s 200.49 Deg 52.08 µg/m3
2022-11-15 01:00 50.53 µg/m3 2.9 µg/m3 23.07 µg/m3 9.82 µg/m3 19.06 °C 82.96 % 1,019.73 mbar 1.26 m/s 196.24 Deg 34.01 µg/m3
2022-11-14 01:00 37.36 µg/m3 3.55 µg/m3 22.59 µg/m3 9.5 µg/m3 18.77 °C 81.57 % 1,018.56 mbar 0.84 m/s 210.74 Deg 23.53 µg/m3
2022-11-13 01:00 26.32 µg/m3 2.86 µg/m3 22.01 µg/m3 9.23 µg/m3 18.56 °C 82.15 % 1,020.81 mbar 1.12 m/s 231.54 Deg 5.27 µg/m3
2022-11-12 01:00 25.45 µg/m3 2.45 µg/m3 19.8 µg/m3 7.34 µg/m3 19.6 °C 75.07 % 1,024.16 mbar 1.13 m/s 207.56 Deg 16.68 µg/m3
2022-11-11 01:00 38.52 µg/m3 4.27 µg/m3 27.9 µg/m3 10.25 µg/m3 18.97 °C 76.43 % 1,020.41 mbar 1.21 m/s 220.82 Deg 40.11 µg/m3
2022-11-10 01:00 50.95 µg/m3 4.92 µg/m3 32.54 µg/m3 11.95 µg/m3 18.62 °C 72.56 % 1,019.03 mbar 1.35 m/s 202.57 Deg 60.48 µg/m3
2022-11-09 01:00 43.01 µg/m3 4.25 µg/m3 24.86 µg/m3 9.75 µg/m3 18.61 °C 74.06 % 1,019.27 mbar 2.21 m/s 221.37 Deg 38.39 µg/m3
2022-11-08 01:00 36.89 µg/m3 3.38 µg/m3 18.56 µg/m3 5.64 µg/m3 19.75 °C 69.97 % 1,018.25 mbar 1.87 m/s 269.35 Deg 10.35 µg/m3
2022-11-07 01:00 5.85 µg/m3 2.87 µg/m3 14.94 µg/m3 5.04 µg/m3 19.92 °C 63.08 % 1,010.75 mbar 4.27 m/s 282.02 Deg 0.09 µg/m3
2022-11-06 01:00 18.07 µg/m3 2.21 µg/m3 13.36 µg/m3 4.89 µg/m3 18.17 °C 70.37 % 1,005.64 mbar 5.4 m/s 246.34 Deg 3.83 µg/m3
2022-11-05 01:00 35.1 µg/m3 3.01 µg/m3 24.69 µg/m3 9.37 µg/m3 22.59 °C 70.21 % 1,012.33 mbar 5.06 m/s 196.48 Deg 14.49 µg/m3
2022-11-04 01:00 39.57 µg/m3 3.61 µg/m3 26.89 µg/m3 12.65 µg/m3 20.98 °C 77.36 % 1,019.15 mbar 2.69 m/s 221.46 Deg 23.73 µg/m3
2022-11-03 01:00 35.4 µg/m3 3.14 µg/m3 27.28 µg/m3 12.55 µg/m3 21.29 °C 78.95 % 1,020.97 mbar 2.01 m/s 254.56 Deg 19.59 µg/m3
2022-11-02 01:00 27.05 µg/m3 3.36 µg/m3 24.43 µg/m3 9.95 µg/m3 22.16 °C 73.1 % 1,020.95 mbar 1.71 m/s 272.69 Deg 4.67 µg/m3
2022-11-01 01:00 33.85 µg/m3 3.92 µg/m3 30.55 µg/m3 12.5 µg/m3 21.49 °C 71.49 % 1,019.60 mbar 1.71 m/s 268.69 Deg 17.32 µg/m3
2022-10-31 01:00 18.38 µg/m3 3.24 µg/m3 28.02 µg/m3 11.08 µg/m3 21.81 °C 67.29 % 1,019.22 mbar 1.15 m/s 212.75 Deg 2.36 µg/m3
2022-10-30 01:00 13.69 µg/m3 2.49 µg/m3 29.98 µg/m3 10.67 µg/m3 22.26 °C 72.55 % 1,020.43 mbar 1.14 m/s 232.09 Deg 1.12 µg/m3
2022-10-29 01:00 33.13 µg/m3 3.75 µg/m3 46.4 µg/m3 18.83 µg/m3 21.91 °C 79.99 % 1,022.35 mbar 0.95 m/s 195.38 Deg 41.7 µg/m3
2022-10-28 01:00 47.83 µg/m3 4.33 µg/m3 60.22 µg/m3 22.38 µg/m3 22.09 °C 80.02 % 1,022.37 mbar 1.23 m/s 153.65 Deg 60.08 µg/m3

It is to be noted that the data is provisional and subject to quality assurance procedures. For validated data kindly refer your request to contact.air@era.org.mt